Donnellson, IA

7:47 PM CDT on October 24, 2014 (GMT -0500)
Burlington Regional | Change Station
CLOSE
Current Station
Airport
Location: Burlington,
Elevation: 696 ft
Nearby Weather Stations

Elev 696 ft 40.78 °N, 91.13 °W | Updated 54 minutes ago

Clear
Clear
63 °F
Feels Like 63 °F
N
8
Wind Variable Wind from SSW

Today
High -- | Low -- °F
--% Chance of Precip.
Yesterday
High -- | Low -- °F
Precip. -- in
7:27 AM 6:12 PM
New Moon, 1% visible
Pressure 29.93 in
Visibility 10.0 miles
Clouds Scattered Clouds 3100 ft
Scattered Clouds 3600 ft
Dew Point 57 °F
Humidity 81%
Rainfall 0.00 in
Snow Depth Not available.
UV 0 out of 12
Pollen 1.50 out of 12
Air Quality Not available.
Flu Activity Sporadic
METAR KBRL 242353Z AUTO 21007KT 10SM SCT031 SCT036 17/14 A2993 RMK AO2 SLP134 T01720139 10189 20150 55006

More Conditions Fewer Conditions

Pressure 29.93 in
Visibility 10.0 miles
Clouds Scattered Clouds 3100 ft
Scattered Clouds 3600 ft
Dew Point 57 °F
Humidity 81%
Rainfall 0.00 in
Snow Depth Not available.
UV 0 out of 12
Pollen 1.50 out of 12
Air Quality Not available.
Flu Activity Sporadic
METAR KBRL 242353Z AUTO 21007KT 10SM SCT031 SCT036 17/14 A2993 RMK AO2 SLP134 T01720139 10189 20150 55006

More Conditions Fewer Conditions

10-Day Weather Forecast

Almanac

Astronomy

Oct. 24, 2014 Rise Set
Actual Time 7:27 AM CDT 6:12 PM CDT
Civil Twilight 6:59 AM CDT 6:40 PM CDT
Nautical Twilight 6:27 AM CDT 7:12 PM CDT
Astronomical Twilight 5:55 AM CDT 7:44 PM CDT
Moon 8:06 AM CDT (10/24) 6:52 PM CDT (10/24)
Length of Visible Light 11h 41m
Length of Day
10h 45m
Tomorrow will be 2m 29s shorter.
New Moon, 1% of the Moon is Illuminated
Today
New Moon
Oct 30
First Quarter
Nov 6
Full
Nov 14
Last Quarter
Nov 22
New

Today's Extremes

State Highs State Lows

Community

WunderPhotos

Upload Photos

1,764,735 photos uploaded!

WunderBlogs® & News

Nearby

Snow Depth

Station Depth Elevation
No new snow has been reported.

Earthquake Activity

City Distance Mag. Time & Date
No recent earthquake activity has been reported nearby.
Minimum magnitude displayed is 2.5.

Coastal Water Temperatures

Place Temperature
No Stations Reporting

Nearby Weather Stations